Mannford, Oklahoma
Current Conditions -  °F | °C
As of 6:15 PM on Tuesday 25 Nov 2014 (Local Time) from KOWP Reporting Station
Clear Clear  
Wind Chill: 46°   Ceiling: Unl
Heat Index: 46°   Visibility: 10mi
Dew Point: 23°   Wind: 3mph
Humidity: 41%   Direction: 150°SSE
Pressure: 30.11"   Gusts: NA
Location:  36.13°N, 96.35°W
Report Text: KOWP 260015Z AUTO 15003KT 10SM CLR 08/M05 A3011 RMK AO2 T00771050
Loading
Personal Weather Stations






























Interactive Weather Map New forecast layout! Learn more

10-Day Weather Forecast

Advertisements
Track Severe Weather on mobile